sensor_id;sensor_type;location;lat;lon;timestamp;P1;durP1;ratioP1;P2;durP2;ratioP2
23531;SDS011;11943;52.270;20.978;2023-08-08T00:00:17;6.93;;;2.00;;
23531;SDS011;11943;52.270;20.978;2023-08-08T00:02:43;5.78;;;2.17;;
23531;SDS011;11943;52.270;20.978;2023-08-08T00:05:09;4.15;;;2.25;;
23531;SDS011;11943;52.270;20.978;2023-08-08T00:07:35;5.18;;;1.90;;
23531;SDS011;11943;52.270;20.978;2023-08-08T00:10:00;3.95;;;2.17;;
23531;SDS011;11943;52.270;20.978;2023-08-08T00:12:26;10.30;;;2.63;;
23531;SDS011;11943;52.270;20.978;2023-08-08T00:14:52;3.00;;;2.17;;
23531;SDS011;11943;52.270;20.978;2023-08-08T00:17:17;8.13;;;2.22;;
23531;SDS011;11943;52.270;20.978;2023-08-08T00:19:43;5.00;;;2.25;;
23531;SDS011;11943;52.270;20.978;2023-08-08T00:22:08;4.07;;;2.00;;
23531;SDS011;11943;52.270;20.978;2023-08-08T00:24:34;8.23;;;2.30;;
23531;SDS011;11943;52.270;20.978;2023-08-08T00:27:00;4.13;;;1.92;;
23531;SDS011;11943;52.270;20.978;2023-08-08T00:29:26;4.15;;;1.80;;
23531;SDS011;11943;52.270;20.978;2023-08-08T00:31:51;7.20;;;2.28;;
23531;SDS011;11943;52.270;20.978;2023-08-08T00:34:17;3.60;;;1.88;;
23531;SDS011;11943;52.270;20.978;2023-08-08T00:36:42;4.78;;;2.25;;
23531;SDS011;11943;52.270;20.978;2023-08-08T00:39:08;4.85;;;2.22;;
23531;SDS011;11943;52.270;20.978;2023-08-08T00:41:34;7.38;;;2.22;;
23531;SDS011;11943;52.270;20.978;2023-08-08T00:44:00;5.18;;;2.38;;
23531;SDS011;11943;52.270;20.978;2023-08-08T00:46:26;5.35;;;2.08;;
23531;SDS011;11943;52.270;20.978;2023-08-08T00:48:51;6.85;;;2.38;;
23531;SDS011;11943;52.270;20.978;2023-08-08T00:51:18;4.32;;;2.25;;
23531;SDS011;11943;52.270;20.978;2023-08-08T00:53:44;4.13;;;1.85;;
23531;SDS011;11943;52.270;20.978;2023-08-08T00:56:13;5.32;;;2.17;;
23531;SDS011;11943;52.270;20.978;2023-08-08T00:58:40;5.55;;;1.92;;
23531;SDS011;11943;52.270;20.978;2023-08-08T01:01:05;5.78;;;2.13;;
23531;SDS011;11943;52.270;20.978;2023-08-08T01:03:31;8.52;;;2.33;;
23531;SDS011;11943;52.270;20.978;2023-08-08T01:08:46;7.18;;;2.20;;
23531;SDS011;11943;52.270;20.978;2023-08-08T01:11:18;7.63;;;2.15;;
23531;SDS011;11943;52.270;20.978;2023-08-08T01:13:44;4.10;;;2.03;;
23531;SDS011;11943;52.270;20.978;2023-08-08T01:16:11;6.20;;;2.20;;
23531;SDS011;11943;52.270;20.978;2023-08-08T01:18:38;6.07;;;2.45;;
23531;SDS011;11943;52.270;20.978;2023-08-08T01:21:05;10.93;;;2.53;;
23531;SDS011;11943;52.270;20.978;2023-08-08T01:23:41;6.32;;;2.50;;
23531;SDS011;11943;52.270;20.978;2023-08-08T01:26:11;6.63;;;2.15;;
23531;SDS011;11943;52.270;20.978;2023-08-08T01:28:37;7.05;;;2.90;;
23531;SDS011;11943;52.270;20.978;2023-08-08T01:31:03;6.40;;;2.60;;
23531;SDS011;11943;52.270;20.978;2023-08-08T01:33:29;7.22;;;2.30;;
23531;SDS011;11943;52.270;20.978;2023-08-08T01:36:06;4.97;;;2.95;;
23531;SDS011;11943;52.270;20.978;2023-08-08T01:38:40;6.43;;;2.22;;
23531;SDS011;11943;52.270;20.978;2023-08-08T01:41:07;4.70;;;2.10;;
23531;SDS011;11943;52.270;20.978;2023-08-08T01:43:33;5.72;;;2.45;;
23531;SDS011;11943;52.270;20.978;2023-08-08T01:48:28;5.23;;;2.13;;
23531;SDS011;11943;52.270;20.978;2023-08-08T01:50:54;8.90;;;2.55;;
23531;SDS011;11943;52.270;20.978;2023-08-08T01:53:19;4.18;;;2.00;;
23531;SDS011;11943;52.270;20.978;2023-08-08T01:55:45;5.82;;;2.13;;
23531;SDS011;11943;52.270;20.978;2023-08-08T01:58:11;5.25;;;2.17;;
23531;SDS011;11943;52.270;20.978;2023-08-08T02:00:36;7.63;;;2.70;;
23531;SDS011;11943;52.270;20.978;2023-08-08T02:03:02;4.43;;;2.20;;
23531;SDS011;11943;52.270;20.978;2023-08-08T02:05:28;6.43;;;2.45;;
23531;SDS011;11943;52.270;20.978;2023-08-08T02:07:54;8.30;;;2.10;;
23531;SDS011;11943;52.270;20.978;2023-08-08T02:10:20;5.95;;;2.10;;
23531;SDS011;11943;52.270;20.978;2023-08-08T02:12:46;9.00;;;2.40;;
23531;SDS011;11943;52.270;20.978;2023-08-08T02:15:11;8.15;;;3.05;;
23531;SDS011;11943;52.270;20.978;2023-08-08T02:17:37;9.05;;;2.30;;
23531;SDS011;11943;52.270;20.978;2023-08-08T02:20:04;5.50;;;2.25;;
23531;SDS011;11943;52.270;20.978;2023-08-08T02:22:31;9.30;;;2.83;;
23531;SDS011;11943;52.270;20.978;2023-08-08T02:24:57;5.95;;;2.13;;
23531;SDS011;11943;52.270;20.978;2023-08-08T02:27:22;6.60;;;2.10;;
23531;SDS011;11943;52.270;20.978;2023-08-08T02:29:48;8.73;;;2.60;;
23531;SDS011;11943;52.270;20.978;2023-08-08T02:32:14;6.90;;;2.70;;
23531;SDS011;11943;52.270;20.978;2023-08-08T02:34:39;7.40;;;2.78;;
23531;SDS011;11943;52.270;20.978;2023-08-08T02:37:05;3.15;;;2.05;;
23531;SDS011;11943;52.270;20.978;2023-08-08T02:39:31;5.00;;;2.80;;
23531;SDS011;11943;52.270;20.978;2023-08-08T02:41:56;5.82;;;2.55;;
23531;SDS011;11943;52.270;20.978;2023-08-08T02:44:22;7.28;;;2.17;;
23531;SDS011;11943;52.270;20.978;2023-08-08T02:46:48;7.40;;;2.20;;
23531;SDS011;11943;52.270;20.978;2023-08-08T02:49:14;4.97;;;2.17;;
23531;SDS011;11943;52.270;20.978;2023-08-08T02:51:39;12.90;;;2.63;;
23531;SDS011;11943;52.270;20.978;2023-08-08T02:54:05;8.45;;;2.70;;
23531;SDS011;11943;52.270;20.978;2023-08-08T02:56:31;3.90;;;2.25;;
23531;SDS011;11943;52.270;20.978;2023-08-08T02:58:56;8.55;;;2.40;;
23531;SDS011;11943;52.270;20.978;2023-08-08T03:01:23;6.50;;;2.28;;
23531;SDS011;11943;52.270;20.978;2023-08-08T03:03:48;5.82;;;2.50;;
23531;SDS011;11943;52.270;20.978;2023-08-08T03:06:14;5.38;;;2.30;;
23531;SDS011;11943;52.270;20.978;2023-08-08T03:08:40;6.82;;;2.45;;
23531;SDS011;11943;52.270;20.978;2023-08-08T03:11:06;6.03;;;2.95;;
23531;SDS011;11943;52.270;20.978;2023-08-08T03:13:31;5.57;;;2.65;;
23531;SDS011;11943;52.270;20.978;2023-08-08T03:15:57;8.85;;;2.95;;
23531;SDS011;11943;52.270;20.978;2023-08-08T03:18:23;4.47;;;2.30;;
23531;SDS011;11943;52.270;20.978;2023-08-08T03:23:16;4.97;;;2.10;;
23531;SDS011;11943;52.270;20.978;2023-08-08T03:25:42;5.15;;;2.10;;
23531;SDS011;11943;52.270;20.978;2023-08-08T03:28:08;6.32;;;2.63;;
23531;SDS011;11943;52.270;20.978;2023-08-08T03:30:35;7.93;;;2.65;;
23531;SDS011;11943;52.270;20.978;2023-08-08T03:33:02;5.65;;;2.42;;
23531;SDS011;11943;52.270;20.978;2023-08-08T03:35:27;4.90;;;2.42;;
23531;SDS011;11943;52.270;20.978;2023-08-08T03:37:53;5.18;;;2.30;;
23531;SDS011;11943;52.270;20.978;2023-08-08T03:40:18;9.27;;;2.75;;
23531;SDS011;11943;52.270;20.978;2023-08-08T03:42:44;17.20;;;2.17;;
23531;SDS011;11943;52.270;20.978;2023-08-08T03:45:10;7.03;;;2.42;;
23531;SDS011;11943;52.270;20.978;2023-08-08T03:47:36;7.00;;;2.30;;
23531;SDS011;11943;52.270;20.978;2023-08-08T03:50:01;3.78;;;2.08;;
23531;SDS011;11943;52.270;20.978;2023-08-08T03:52:27;10.40;;;2.38;;
23531;SDS011;11943;52.270;20.978;2023-08-08T03:54:54;6.70;;;2.10;;
23531;SDS011;11943;52.270;20.978;2023-08-08T03:57:19;7.20;;;2.55;;
23531;SDS011;11943;52.270;20.978;2023-08-08T03:59:45;5.53;;;2.40;;
23531;SDS011;11943;52.270;20.978;2023-08-08T04:02:10;4.95;;;2.17;;
23531;SDS011;11943;52.270;20.978;2023-08-08T04:04:36;7.47;;;2.20;;
23531;SDS011;11943;52.270;20.978;2023-08-08T04:07:03;9.88;;;2.42;;
23531;SDS011;11943;52.270;20.978;2023-08-08T04:09:29;5.30;;;2.30;;
23531;SDS011;11943;52.270;20.978;2023-08-08T04:11:55;4.93;;;2.38;;
23531;SDS011;11943;52.270;20.978;2023-08-08T04:14:20;5.85;;;2.20;;
23531;SDS011;11943;52.270;20.978;2023-08-08T04:16:46;11.13;;;2.65;;
23531;SDS011;11943;52.270;20.978;2023-08-08T04:19:12;4.22;;;2.35;;
23531;SDS011;11943;52.270;20.978;2023-08-08T04:21:37;22.55;;;2.63;;
23531;SDS011;11943;52.270;20.978;2023-08-08T04:24:03;7.22;;;2.47;;
23531;SDS011;11943;52.270;20.978;2023-08-08T04:26:29;6.40;;;2.53;;
23531;SDS011;11943;52.270;20.978;2023-08-08T04:28:54;5.45;;;2.28;;
23531;SDS011;11943;52.270;20.978;2023-08-08T04:31:20;4.85;;;2.20;;
23531;SDS011;11943;52.270;20.978;2023-08-08T04:33:49;3.78;;;2.10;;
23531;SDS011;11943;52.270;20.978;2023-08-08T04:36:15;16.23;;;2.60;;
23531;SDS011;11943;52.270;20.978;2023-08-08T04:38:40;4.72;;;2.20;;
23531;SDS011;11943;52.270;20.978;2023-08-08T04:41:06;8.10;;;2.42;;
23531;SDS011;11943;52.270;20.978;2023-08-08T04:43:32;8.90;;;2.53;;
23531;SDS011;11943;52.270;20.978;2023-08-08T04:45:57;10.13;;;2.28;;
23531;SDS011;11943;52.270;20.978;2023-08-08T04:48:23;9.52;;;2.28;;
23531;SDS011;11943;52.270;20.978;2023-08-08T04:50:48;6.65;;;2.13;;
23531;SDS011;11943;52.270;20.978;2023-08-08T04:53:14;13.57;;;2.70;;
23531;SDS011;11943;52.270;20.978;2023-08-08T04:55:40;10.45;;;2.42;;
23531;SDS011;11943;52.270;20.978;2023-08-08T04:58:05;5.88;;;2.30;;
23531;SDS011;11943;52.270;20.978;2023-08-08T05:00:31;3.83;;;2.03;;
23531;SDS011;11943;52.270;20.978;2023-08-08T05:02:57;9.35;;;2.47;;
23531;SDS011;11943;52.270;20.978;2023-08-08T05:05:22;9.68;;;2.42;;
23531;SDS011;11943;52.270;20.978;2023-08-08T05:07:48;4.97;;;2.13;;
23531;SDS011;11943;52.270;20.978;2023-08-08T05:10:14;5.07;;;2.13;;
23531;SDS011;11943;52.270;20.978;2023-08-08T05:12:39;6.15;;;2.20;;
23531;SDS011;11943;52.270;20.978;2023-08-08T05:15:06;8.95;;;2.22;;
23531;SDS011;11943;52.270;20.978;2023-08-08T05:17:32;4.40;;;1.73;;
23531;SDS011;11943;52.270;20.978;2023-08-08T05:19:58;16.63;;;2.83;;
23531;SDS011;11943;52.270;20.978;2023-08-08T05:22:23;4.53;;;1.70;;
23531;SDS011;11943;52.270;20.978;2023-08-08T05:24:49;13.25;;;2.20;;
23531;SDS011;11943;52.270;20.978;2023-08-08T05:27:15;5.93;;;1.80;;
23531;SDS011;11943;52.270;20.978;2023-08-08T05:29:40;13.18;;;2.17;;
23531;SDS011;11943;52.270;20.978;2023-08-08T05:32:06;4.40;;;2.25;;
23531;SDS011;11943;52.270;20.978;2023-08-08T05:34:33;6.78;;;2.30;;
23531;SDS011;11943;52.270;20.978;2023-08-08T05:36:59;7.35;;;2.47;;
23531;SDS011;11943;52.270;20.978;2023-08-08T05:39:24;6.18;;;2.08;;
23531;SDS011;11943;52.270;20.978;2023-08-08T05:41:50;3.95;;;2.00;;
23531;SDS011;11943;52.270;20.978;2023-08-08T05:44:16;5.68;;;1.60;;
23531;SDS011;11943;52.270;20.978;2023-08-08T05:46:42;7.50;;;2.40;;
23531;SDS011;11943;52.270;20.978;2023-08-08T05:49:08;6.20;;;2.33;;
23531;SDS011;11943;52.270;20.978;2023-08-08T05:51:33;6.80;;;2.42;;
23531;SDS011;11943;52.270;20.978;2023-08-08T05:53:59;10.77;;;2.90;;
23531;SDS011;11943;52.270;20.978;2023-08-08T05:56:25;10.23;;;2.22;;
23531;SDS011;11943;52.270;20.978;2023-08-08T05:58:52;5.35;;;2.33;;
23531;SDS011;11943;52.270;20.978;2023-08-08T06:01:18;9.05;;;2.15;;
23531;SDS011;11943;52.270;20.978;2023-08-08T06:03:43;7.35;;;2.22;;
23531;SDS011;11943;52.270;20.978;2023-08-08T06:06:09;6.65;;;2.13;;
23531;SDS011;11943;52.270;20.978;2023-08-08T06:08:35;4.15;;;2.40;;
23531;SDS011;11943;52.270;20.978;2023-08-08T06:11:00;7.35;;;2.17;;
23531;SDS011;11943;52.270;20.978;2023-08-08T06:13:26;7.50;;;1.98;;
23531;SDS011;11943;52.270;20.978;2023-08-08T06:15:52;6.68;;;2.50;;
23531;SDS011;11943;52.270;20.978;2023-08-08T06:18:18;9.32;;;2.20;;
23531;SDS011;11943;52.270;20.978;2023-08-08T06:20:43;5.68;;;2.40;;
23531;SDS011;11943;52.270;20.978;2023-08-08T06:23:09;10.13;;;2.63;;
23531;SDS011;11943;52.270;20.978;2023-08-08T06:25:35;3.92;;;2.10;;
23531;SDS011;11943;52.270;20.978;2023-08-08T06:28:01;5.65;;;2.10;;
23531;SDS011;11943;52.270;20.978;2023-08-08T06:30:26;8.18;;;2.08;;
23531;SDS011;11943;52.270;20.978;2023-08-08T06:32:52;5.90;;;2.20;;
23531;SDS011;11943;52.270;20.978;2023-08-08T06:35:17;4.03;;;2.38;;
23531;SDS011;11943;52.270;20.978;2023-08-08T06:37:43;8.70;;;2.05;;
23531;SDS011;11943;52.270;20.978;2023-08-08T06:40:09;6.53;;;2.25;;
23531;SDS011;11943;52.270;20.978;2023-08-08T06:42:36;7.93;;;1.80;;
23531;SDS011;11943;52.270;20.978;2023-08-08T06:45:01;4.57;;;2.08;;
23531;SDS011;11943;52.270;20.978;2023-08-08T06:47:27;5.68;;;2.25;;
23531;SDS011;11943;52.270;20.978;2023-08-08T06:49:53;6.78;;;2.25;;
23531;SDS011;11943;52.270;20.978;2023-08-08T06:52:19;7.95;;;2.47;;
23531;SDS011;11943;52.270;20.978;2023-08-08T06:54:46;6.40;;;2.00;;
23531;SDS011;11943;52.270;20.978;2023-08-08T06:57:12;11.00;;;2.45;;
23531;SDS011;11943;52.270;20.978;2023-08-08T06:59:37;8.27;;;2.50;;
23531;SDS011;11943;52.270;20.978;2023-08-08T07:02:03;8.05;;;2.10;;
23531;SDS011;11943;52.270;20.978;2023-08-08T07:04:29;7.40;;;2.03;;
23531;SDS011;11943;52.270;20.978;2023-08-08T07:06:54;4.90;;;2.25;;
23531;SDS011;11943;52.270;20.978;2023-08-08T07:09:20;4.65;;;2.10;;
23531;SDS011;11943;52.270;20.978;2023-08-08T07:11:46;9.35;;;2.35;;
23531;SDS011;11943;52.270;20.978;2023-08-08T07:14:12;5.28;;;2.00;;
23531;SDS011;11943;52.270;20.978;2023-08-08T07:16:38;12.60;;;2.63;;
23531;SDS011;11943;52.270;20.978;2023-08-08T07:19:04;4.65;;;2.17;;
23531;SDS011;11943;52.270;20.978;2023-08-08T07:21:31;9.48;;;2.05;;
23531;SDS011;11943;52.270;20.978;2023-08-08T07:23:56;6.25;;;2.05;;
23531;SDS011;11943;52.270;20.978;2023-08-08T07:26:22;5.05;;;2.10;;
23531;SDS011;11943;52.270;20.978;2023-08-08T07:28:48;7.25;;;1.95;;
23531;SDS011;11943;52.270;20.978;2023-08-08T07:31:14;4.45;;;2.00;;
23531;SDS011;11943;52.270;20.978;2023-08-08T07:33:39;6.35;;;2.03;;
23531;SDS011;11943;52.270;20.978;2023-08-08T07:36:05;4.18;;;1.85;;
23531;SDS011;11943;52.270;20.978;2023-08-08T07:38:30;7.65;;;1.90;;
23531;SDS011;11943;52.270;20.978;2023-08-08T07:40:58;7.90;;;2.20;;
23531;SDS011;11943;52.270;20.978;2023-08-08T07:43:23;10.27;;;2.17;;
23531;SDS011;11943;52.270;20.978;2023-08-08T07:45:49;6.78;;;2.40;;
23531;SDS011;11943;52.270;20.978;2023-08-08T07:48:15;6.88;;;2.45;;
23531;SDS011;11943;52.270;20.978;2023-08-08T07:50:40;4.15;;;1.63;;
23531;SDS011;11943;52.270;20.978;2023-08-08T07:53:06;6.68;;;2.13;;
23531;SDS011;11943;52.270;20.978;2023-08-08T07:55:32;8.55;;;2.20;;
23531;SDS011;11943;52.270;20.978;2023-08-08T07:57:58;7.53;;;2.17;;
23531;SDS011;11943;52.270;20.978;2023-08-08T08:00:23;4.93;;;1.92;;
23531;SDS011;11943;52.270;20.978;2023-08-08T08:02:49;7.57;;;2.55;;
23531;SDS011;11943;52.270;20.978;2023-08-08T08:05:15;6.05;;;1.75;;
23531;SDS011;11943;52.270;20.978;2023-08-08T08:07:40;13.68;;;2.00;;
23531;SDS011;11943;52.270;20.978;2023-08-08T08:10:07;5.78;;;2.20;;
23531;SDS011;11943;52.270;20.978;2023-08-08T08:12:35;3.55;;;1.92;;
23531;SDS011;11943;52.270;20.978;2023-08-08T08:15:01;3.53;;;1.73;;
23531;SDS011;11943;52.270;20.978;2023-08-08T08:17:27;9.13;;;1.92;;
23531;SDS011;11943;52.270;20.978;2023-08-08T08:19:53;10.07;;;2.40;;
23531;SDS011;11943;52.270;20.978;2023-08-08T08:22:19;2.90;;;1.60;;
23531;SDS011;11943;52.270;20.978;2023-08-08T08:24:45;5.07;;;2.10;;
23531;SDS011;11943;52.270;20.978;2023-08-08T08:27:11;4.53;;;1.88;;
23531;SDS011;11943;52.270;20.978;2023-08-08T08:29:37;6.05;;;1.90;;
23531;SDS011;11943;52.270;20.978;2023-08-08T08:32:03;8.38;;;2.13;;
23531;SDS011;11943;52.270;20.978;2023-08-08T08:34:29;6.75;;;2.03;;
23531;SDS011;11943;52.270;20.978;2023-08-08T08:36:55;3.53;;;1.63;;
23531;SDS011;11943;52.270;20.978;2023-08-08T08:39:21;3.28;;;2.10;;
23531;SDS011;11943;52.270;20.978;2023-08-08T08:41:48;7.40;;;1.98;;
23531;SDS011;11943;52.270;20.978;2023-08-08T08:44:16;4.85;;;2.20;;
23531;SDS011;11943;52.270;20.978;2023-08-08T08:46:42;6.65;;;1.88;;
23531;SDS011;11943;52.270;20.978;2023-08-08T08:49:11;4.45;;;1.80;;
23531;SDS011;11943;52.270;20.978;2023-08-08T08:51:37;6.47;;;1.90;;
23531;SDS011;11943;52.270;20.978;2023-08-08T08:54:04;4.13;;;2.00;;
23531;SDS011;11943;52.270;20.978;2023-08-08T08:56:31;6.38;;;2.28;;
23531;SDS011;11943;52.270;20.978;2023-08-08T08:58:58;4.78;;;1.70;;
23531;SDS011;11943;52.270;20.978;2023-08-08T09:01:24;6.65;;;1.67;;
23531;SDS011;11943;52.270;20.978;2023-08-08T09:03:50;4.47;;;2.15;;
23531;SDS011;11943;52.270;20.978;2023-08-08T09:06:15;5.63;;;1.80;;
23531;SDS011;11943;52.270;20.978;2023-08-08T09:08:43;4.25;;;2.00;;
23531;SDS011;11943;52.270;20.978;2023-08-08T09:11:12;4.57;;;1.52;;
23531;SDS011;11943;52.270;20.978;2023-08-08T09:13:37;5.95;;;1.83;;
23531;SDS011;11943;52.270;20.978;2023-08-08T09:16:05;9.52;;;1.83;;
23531;SDS011;11943;52.270;20.978;2023-08-08T09:18:33;11.38;;;2.17;;
23531;SDS011;11943;52.270;20.978;2023-08-08T09:20:59;3.58;;;1.70;;
23531;SDS011;11943;52.270;20.978;2023-08-08T09:23:25;4.95;;;1.77;;
23531;SDS011;11943;52.270;20.978;2023-08-08T09:25:50;5.68;;;1.70;;
23531;SDS011;11943;52.270;20.978;2023-08-08T09:28:16;7.80;;;1.80;;
23531;SDS011;11943;52.270;20.978;2023-08-08T09:30:42;3.20;;;1.70;;
23531;SDS011;11943;52.270;20.978;2023-08-08T09:33:08;10.75;;;1.65;;
23531;SDS011;11943;52.270;20.978;2023-08-08T09:35:34;6.78;;;1.63;;
23531;SDS011;11943;52.270;20.978;2023-08-08T09:38:04;3.50;;;1.42;;
23531;SDS011;11943;52.270;20.978;2023-08-08T09:40:30;14.68;;;2.05;;
23531;SDS011;11943;52.270;20.978;2023-08-08T09:42:56;7.50;;;1.45;;
23531;SDS011;11943;52.270;20.978;2023-08-08T09:45:23;8.15;;;1.70;;
23531;SDS011;11943;52.270;20.978;2023-08-08T09:47:49;8.98;;;1.70;;
23531;SDS011;11943;52.270;20.978;2023-08-08T09:50:19;3.25;;;1.63;;
23531;SDS011;11943;52.270;20.978;2023-08-08T09:52:47;3.75;;;1.77;;
23531;SDS011;11943;52.270;20.978;2023-08-08T09:55:14;4.18;;;1.42;;
23531;SDS011;11943;52.270;20.978;2023-08-08T09:57:40;3.22;;;1.75;;
23531;SDS011;11943;52.270;20.978;2023-08-08T10:00:07;3.63;;;1.80;;
23531;SDS011;11943;52.270;20.978;2023-08-08T10:02:41;9.50;;;1.98;;
23531;SDS011;11943;52.270;20.978;2023-08-08T10:05:11;5.15;;;1.48;;
23531;SDS011;11943;52.270;20.978;2023-08-08T10:07:39;2.45;;;1.55;;
23531;SDS011;11943;52.270;20.978;2023-08-08T10:10:06;4.85;;;1.48;;
23531;SDS011;11943;52.270;20.978;2023-08-08T10:12:34;3.05;;;1.35;;
23531;SDS011;11943;52.270;20.978;2023-08-08T10:15:02;3.28;;;1.50;;
23531;SDS011;11943;52.270;20.978;2023-08-08T10:17:34;5.55;;;1.30;;
23531;SDS011;11943;52.270;20.978;2023-08-08T10:20:00;2.53;;;1.35;;
23531;SDS011;11943;52.270;20.978;2023-08-08T10:22:34;3.20;;;1.60;;
23531;SDS011;11943;52.270;20.978;2023-08-08T10:25:03;4.15;;;1.33;;
23531;SDS011;11943;52.270;20.978;2023-08-08T10:27:32;5.40;;;1.52;;
23531;SDS011;11943;52.270;20.978;2023-08-08T10:30:06;4.47;;;1.38;;
23531;SDS011;11943;52.270;20.978;2023-08-08T10:35:05;3.65;;;1.27;;
23531;SDS011;11943;52.270;20.978;2023-08-08T10:37:31;2.60;;;1.52;;
23531;SDS011;11943;52.270;20.978;2023-08-08T10:39:58;5.55;;;1.58;;
23531;SDS011;11943;52.270;20.978;2023-08-08T10:42:25;5.18;;;1.60;;
23531;SDS011;11943;52.270;20.978;2023-08-08T10:44:52;7.68;;;1.48;;
23531;SDS011;11943;52.270;20.978;2023-08-08T10:49:59;2.80;;;1.30;;
23531;SDS011;11943;52.270;20.978;2023-08-08T10:52:28;3.75;;;1.10;;
23531;SDS011;11943;52.270;20.978;2023-08-08T10:54:54;5.18;;;1.35;;
23531;SDS011;11943;52.270;20.978;2023-08-08T10:57:23;3.25;;;1.25;;
23531;SDS011;11943;52.270;20.978;2023-08-08T10:59:50;4.65;;;1.30;;
23531;SDS011;11943;52.270;20.978;2023-08-08T11:02:16;2.63;;;1.58;;
23531;SDS011;11943;52.270;20.978;2023-08-08T11:07:09;6.57;;;1.38;;
23531;SDS011;11943;52.270;20.978;2023-08-08T11:09:35;3.47;;;1.25;;
23531;SDS011;11943;52.270;20.978;2023-08-08T11:12:01;4.75;;;1.10;;
23531;SDS011;11943;52.270;20.978;2023-08-08T11:14:27;6.85;;;1.52;;
23531;SDS011;11943;52.270;20.978;2023-08-08T11:16:53;3.17;;;1.17;;
23531;SDS011;11943;52.270;20.978;2023-08-08T11:19:19;2.72;;;1.10;;
23531;SDS011;11943;52.270;20.978;2023-08-08T11:21:45;2.22;;;1.00;;
23531;SDS011;11943;52.270;20.978;2023-08-08T11:24:12;7.65;;;1.45;;
23531;SDS011;11943;52.270;20.978;2023-08-08T11:26:39;2.15;;;1.20;;
23531;SDS011;11943;52.270;20.978;2023-08-08T11:29:05;4.15;;;1.35;;
23531;SDS011;11943;52.270;20.978;2023-08-08T11:31:32;2.60;;;0.93;;
23531;SDS011;11943;52.270;20.978;2023-08-08T11:36:32;3.70;;;1.23;;
23531;SDS011;11943;52.270;20.978;2023-08-08T11:39:00;1.65;;;1.10;;
23531;SDS011;11943;52.270;20.978;2023-08-08T11:41:33;1.17;;;0.80;;
23531;SDS011;11943;52.270;20.978;2023-08-08T11:44:00;2.17;;;1.17;;
23531;SDS011;11943;52.270;20.978;2023-08-08T11:46:27;2.10;;;1.20;;
23531;SDS011;11943;52.270;20.978;2023-08-08T11:48:52;1.20;;;1.00;;
23531;SDS011;11943;52.270;20.978;2023-08-08T11:51:18;4.78;;;1.20;;
23531;SDS011;11943;52.270;20.978;2023-08-08T11:53:51;4.88;;;1.33;;
23531;SDS011;11943;52.270;20.978;2023-08-08T11:56:21;2.22;;;1.10;;
23531;SDS011;11943;52.270;20.978;2023-08-08T11:58:49;4.25;;;1.25;;
23531;SDS011;11943;52.270;20.978;2023-08-08T12:01:19;2.90;;;1.08;;
23531;SDS011;11943;52.270;20.978;2023-08-08T12:03:45;5.32;;;1.15;;
23531;SDS011;11943;52.270;20.978;2023-08-08T12:06:20;1.38;;;0.90;;
23531;SDS011;11943;52.270;20.978;2023-08-08T12:08:47;1.38;;;1.10;;
23531;SDS011;11943;52.270;20.978;2023-08-08T12:11:13;1.98;;;1.00;;
23531;SDS011;11943;52.270;20.978;2023-08-08T12:13:40;2.80;;;0.98;;
23531;SDS011;11943;52.270;20.978;2023-08-08T12:16:11;1.50;;;0.98;;
23531;SDS011;11943;52.270;20.978;2023-08-08T12:18:39;2.30;;;1.25;;
23531;SDS011;11943;52.270;20.978;2023-08-08T12:21:06;2.00;;;0.90;;
23531;SDS011;11943;52.270;20.978;2023-08-08T12:23:33;1.60;;;0.70;;
23531;SDS011;11943;52.270;20.978;2023-08-08T12:25:59;2.00;;;1.37;;
23531;SDS011;11943;52.270;20.978;2023-08-08T12:28:28;2.75;;;1.10;;
23531;SDS011;11943;52.270;20.978;2023-08-08T12:30:54;4.47;;;0.93;;
23531;SDS011;11943;52.270;20.978;2023-08-08T12:33:20;3.25;;;0.93;;
23531;SDS011;11943;52.270;20.978;2023-08-08T12:35:46;4.55;;;1.10;;
23531;SDS011;11943;52.270;20.978;2023-08-08T12:38:12;1.88;;;1.02;;
23531;SDS011;11943;52.270;20.978;2023-08-08T12:40:39;2.47;;;1.15;;
23531;SDS011;11943;52.270;20.978;2023-08-08T12:43:05;2.58;;;1.15;;
23531;SDS011;11943;52.270;20.978;2023-08-08T12:45:30;2.78;;;0.93;;
23531;SDS011;11943;52.270;20.978;2023-08-08T12:47:56;1.23;;;1.00;;
23531;SDS011;11943;52.270;20.978;2023-08-08T12:50:21;1.13;;;1.00;;
23531;SDS011;11943;52.270;20.978;2023-08-08T12:52:48;7.82;;;1.13;;
23531;SDS011;11943;52.270;20.978;2023-08-08T12:55:14;6.38;;;1.00;;
23531;SDS011;11943;52.270;20.978;2023-08-08T12:57:42;2.03;;;0.88;;
23531;SDS011;11943;52.270;20.978;2023-08-08T13:00:08;2.25;;;1.10;;
23531;SDS011;11943;52.270;20.978;2023-08-08T13:02:34;3.05;;;1.08;;
23531;SDS011;11943;52.270;20.978;2023-08-08T13:05:00;1.23;;;1.00;;
23531;SDS011;11943;52.270;20.978;2023-08-08T13:07:28;1.92;;;1.20;;
23531;SDS011;11943;52.270;20.978;2023-08-08T13:09:53;2.35;;;1.05;;
23531;SDS011;11943;52.270;20.978;2023-08-08T13:12:19;3.22;;;0.95;;
23531;SDS011;11943;52.270;20.978;2023-08-08T13:14:46;2.57;;;0.90;;
23531;SDS011;11943;52.270;20.978;2023-08-08T13:17:11;3.78;;;1.00;;
23531;SDS011;11943;52.270;20.978;2023-08-08T13:19:37;2.50;;;0.82;;
23531;SDS011;11943;52.270;20.978;2023-08-08T13:22:03;0.85;;;0.80;;
23531;SDS011;11943;52.270;20.978;2023-08-08T13:24:29;3.63;;;0.90;;
23531;SDS011;11943;52.270;20.978;2023-08-08T13:26:54;1.80;;;0.93;;
23531;SDS011;11943;52.270;20.978;2023-08-08T13:29:20;5.30;;;0.90;;
23531;SDS011;11943;52.270;20.978;2023-08-08T13:31:45;1.50;;;1.08;;
23531;SDS011;11943;52.270;20.978;2023-08-08T13:34:11;2.33;;;1.05;;
23531;SDS011;11943;52.270;20.978;2023-08-08T13:36:37;3.05;;;1.20;;
23531;SDS011;11943;52.270;20.978;2023-08-08T13:39:02;4.85;;;1.10;;
23531;SDS011;11943;52.270;20.978;2023-08-08T13:41:29;1.30;;;1.10;;
23531;SDS011;11943;52.270;20.978;2023-08-08T13:43:55;3.38;;;1.33;;
23531;SDS011;11943;52.270;20.978;2023-08-08T13:46:21;1.35;;;0.98;;
23531;SDS011;11943;52.270;20.978;2023-08-08T13:48:47;5.55;;;1.42;;
23531;SDS011;11943;52.270;20.978;2023-08-08T13:51:12;2.72;;;1.20;;
23531;SDS011;11943;52.270;20.978;2023-08-08T13:53:38;4.15;;;0.93;;
23531;SDS011;11943;52.270;20.978;2023-08-08T13:56:04;1.75;;;0.98;;
23531;SDS011;11943;52.270;20.978;2023-08-08T13:58:29;5.65;;;1.30;;
23531;SDS011;11943;52.270;20.978;2023-08-08T14:00:55;4.95;;;1.30;;
23531;SDS011;11943;52.270;20.978;2023-08-08T14:03:22;4.03;;;1.17;;
23531;SDS011;11943;52.270;20.978;2023-08-08T14:05:49;3.83;;;1.20;;
23531;SDS011;11943;52.270;20.978;2023-08-08T14:08:17;2.20;;;1.05;;
23531;SDS011;11943;52.270;20.978;2023-08-08T14:10:43;4.13;;;0.95;;
23531;SDS011;11943;52.270;20.978;2023-08-08T14:13:09;1.17;;;0.90;;
23531;SDS011;11943;52.270;20.978;2023-08-08T14:15:36;5.07;;;1.20;;
23531;SDS011;11943;52.270;20.978;2023-08-08T14:18:02;1.27;;;0.90;;
23531;SDS011;11943;52.270;20.978;2023-08-08T14:20:28;2.03;;;1.10;;
23531;SDS011;11943;52.270;20.978;2023-08-08T14:22:54;4.72;;;1.08;;
23531;SDS011;11943;52.270;20.978;2023-08-08T14:25:19;2.30;;;1.48;;
23531;SDS011;11943;52.270;20.978;2023-08-08T14:27:45;5.05;;;1.40;;
23531;SDS011;11943;52.270;20.978;2023-08-08T14:30:11;6.07;;;1.33;;
23531;SDS011;11943;52.270;20.978;2023-08-08T14:32:37;3.08;;;1.20;;
23531;SDS011;11943;52.270;20.978;2023-08-08T14:35:03;6.75;;;1.00;;
23531;SDS011;11943;52.270;20.978;2023-08-08T14:37:30;2.33;;;1.10;;
23531;SDS011;11943;52.270;20.978;2023-08-08T14:39:56;6.03;;;1.23;;
23531;SDS011;11943;52.270;20.978;2023-08-08T14:42:22;4.97;;;1.20;;
23531;SDS011;11943;52.270;20.978;2023-08-08T14:44:47;6.55;;;1.20;;